Time;durP1;ratioP1;P1;durP2;ratioP2;P2;SDS_P1;SDS_P2;PMS_P1;PMS_P2;Temp;Humidity;BMP_temperature;BMP_pressure;BME280_temperature;BME280_humidity;BME280_pressure;Samples;Min_cycle;Max_cycle;Signal;HPM_P1;HPM_P2
2023/12/28 00:01:42;;;;;;;;;;;;;;;;;;5090377;28;19924;-71
2023/12/28 00:04:09;;;;;;;;;;;;;;;;;;5082493;28;19929;-71
2023/12/28 00:06:36;;;;;;;;;;;;;;;;;;5084673;28;19978;-71
2023/12/28 00:09:03;;;;;;;;;;;;;;;;;;5090470;28;19973;-71
2023/12/28 00:11:31;;;;;;;;;;;;;;;;;;5090434;28;19924;-70
2023/12/28 00:13:58;;;;;;;;;;;;;;;;;;5084974;28;19932;-71
2023/12/28 00:16:25;;;;;;;;;;;;;;;;;;5087746;28;19932;-70
2023/12/28 00:18:52;;;;;;;;;;;;;;;;;;5089044;28;19985;-71
2023/12/28 00:21:19;;;;;;;;;;;;;;;;;;5089437;28;19924;-71
2023/12/28 00:23:46;;;;;;;;;;;;;;;;;;5090238;28;19977;-71
2023/12/28 00:26:13;;;;;;;;;;;;;;;;;;5090330;28;19932;-71
2023/12/28 00:28:40;;;;;;;;;;;;;;;;;;5086909;28;19924;-71
2023/12/28 00:31:07;;;;;;;;;;;;;;;;;;5089725;28;19924;-71
2023/12/28 00:33:34;;;;;;;;;;;;;;;;;;5086674;28;19924;-71
2023/12/28 00:36:01;;;;;;;;;;;;;;;;;;5088609;28;19978;-71
2023/12/28 00:38:28;;;;;;;;;;;;;;;;;;5080676;28;20299;-71
2023/12/28 00:40:55;;;;;;;;;;;;;;;;;;5085971;28;19924;-70
2023/12/28 00:43:22;;;;;;;;;;;;;;;;;;5074858;28;19928;-71
2023/12/28 00:45:50;;;;;;;;;;;;;;;;;;5087799;28;20001;-71
2023/12/28 00:48:17;;;;;;;;;;;;;;;;;;5083266;28;19957;-71
2023/12/28 00:50:44;;;;;;;;;;;;;;;;;;5083875;28;19924;-71
2023/12/28 00:53:11;;;;;;;;;;;;;;;;;;5089402;28;19924;-70
2023/12/28 00:55:38;;;;;;;;;;;;;;;;;;5089685;28;19925;-71
2023/12/28 00:58:05;;;;;;;;;;;;;;;;;;5090692;28;20378;-70
2023/12/28 01:00:32;;;;;;;;;;;;;;;;;;5091829;28;19924;-72
2023/12/28 01:02:59;;;;;;;;;;;;;;;;;;5091454;28;19924;-71
2023/12/28 01:05:28;;;;;;;;;;;;;;;;;;5088801;28;20428;-72
2023/12/28 01:07:55;;;;;;;;;;;;;;;;;;5085696;28;20153;-72
2023/12/28 01:10:22;;;;;;;;;;;;;;;;;;5089499;28;19924;-72
2023/12/28 01:12:49;;;;;;;;;;;;;;;;;;5090683;28;20378;-71
2023/12/28 01:15:17;;;;;;;;;;;;;;;;;;5090122;28;19981;-72
2023/12/28 01:17:44;;;;;;;;;;;;;;;;;;5089309;28;20405;-71
2023/12/28 01:20:11;;;;;;;;;;;;;;;;;;5091314;28;19959;-70
2023/12/28 01:22:38;;;;;;;;;;;;;;;;;;5081876;28;19924;-70
2023/12/28 01:25:05;;;;;;;;;;;;;;;;;;5096084;28;19931;-71
2023/12/28 01:27:32;;;;;;;;;;;;;;;;;;5094333;28;20448;-70
2023/12/28 01:29:59;;;;;;;;;;;;;;;;;;5093975;28;19985;-71
2023/12/28 01:32:27;;;;;;;;;;;;;;;;;;5088999;28;19924;-70
2023/12/28 01:34:54;;;;;;;;;;;;;;;;;;5076954;28;19934;-71
2023/12/28 01:37:21;;;;;;;;;;;;;;;;;;5091183;28;19928;-70
2023/12/28 01:39:48;;;;;;;;;;;;;;;;;;5092606;28;19931;-71
2023/12/28 01:42:15;;;;;;;;;;;;;;;;;;5089396;28;19924;-71
2023/12/28 01:44:42;;;;;;;;;;;;;;;;;;5094293;28;19924;-71
2023/12/28 01:47:09;;;;;;;;;;;;;;;;;;5092993;28;19924;-70
2023/12/28 01:49:36;;;;;;;;;;;;;;;;;;5092806;28;20336;-71
2023/12/28 01:52:03;;;;;;;;;;;;;;;;;;5093135;28;19932;-70
2023/12/28 01:54:30;;;;;;;;;;;;;;;;;;5094387;28;19923;-71
2023/12/28 01:56:57;;;;;;;;;;;;;;;;;;5085517;28;19936;-72
2023/12/28 01:59:24;;;;;;;;;;;;;;;;;;5081738;28;19932;-71
2023/12/28 02:01:51;;;;;;;;;;;;;;;;;;5093677;28;20012;-71
2023/12/28 02:04:25;;;;;;;;;;;;;;;;;;5094026;28;20280;-71
2023/12/28 02:06:52;;;;;;;;;;;;;;;;;;5083186;28;19932;-71
2023/12/28 02:09:20;;;;;;;;;;;;;;;;;;5082640;28;19932;-71
2023/12/28 02:11:47;;;;;;;;;;;;;;;;;;5090742;28;19931;-72
2023/12/28 02:14:14;;;;;;;;;;;;;;;;;;5089769;28;19924;-70
2023/12/28 02:16:41;;;;;;;;;;;;;;;;;;5092229;28;19928;-70
2023/12/28 02:19:08;;;;;;;;;;;;;;;;;;5087585;28;19958;-70
2023/12/28 02:21:35;;;;;;;;;;;;;;;;;;5093354;28;20641;-71
2023/12/28 02:24:02;;;;;;;;;;;;;;;;;;5086197;28;19924;-70
2023/12/28 02:26:29;;;;;;;;;;;;;;;;;;5091916;28;19977;-70
2023/12/28 02:28:56;;;;;;;;;;;;;;;;;;5091421;28;20375;-70
2023/12/28 02:31:23;;;;;;;;;;;;;;;;;;5090717;28;19977;-69
2023/12/28 02:33:50;;;;;;;;;;;;;;;;;;5087718;28;20375;-70
2023/12/28 02:36:17;;;;;;;;;;;;;;;;;;5092506;28;19984;-70
2023/12/28 02:38:44;;;;;;;;;;;;;;;;;;5091425;28;19977;-70
2023/12/28 02:41:11;;;;;;;;;;;;;;;;;;5090193;28;19924;-70
2023/12/28 02:43:38;;;;;;;;;;;;;;;;;;5092138;28;19928;-70
2023/12/28 02:46:05;;;;;;;;;;;;;;;;;;5092425;28;19924;-72
2023/12/28 02:48:32;;;;;;;;;;;;;;;;;;5090076;28;19989;-71
2023/12/28 02:50:59;;;;;;;;;;;;;;;;;;5087610;28;19924;-72
2023/12/28 02:53:26;;;;;;;;;;;;;;;;;;5082890;28;19927;-72
2023/12/28 02:55:53;;;;;;;;;;;;;;;;;;5091235;28;19928;-71
2023/12/28 02:58:20;;;;;;;;;;;;;;;;;;5075331;28;19925;-71
2023/12/28 03:00:48;;;;;;;;;;;;;;;;;;5085092;28;19924;-71
2023/12/28 03:03:15;;;;;;;;;;;;;;;;;;5089517;28;19924;-70
2023/12/28 03:05:42;;;;;;;;;;;;;;;;;;5091664;28;20371;-71
2023/12/28 03:08:09;;;;;;;;;;;;;;;;;;5084353;28;19951;-71
2023/12/28 03:10:36;;;;;;;;;;;;;;;;;;5090934;28;19985;-71
2023/12/28 03:13:03;;;;;;;;;;;;;;;;;;5092141;28;19993;-71
2023/12/28 03:15:30;;;;;;;;;;;;;;;;;;5092962;28;19924;-71
2023/12/28 03:17:58;;;;;;;;;;;;;;;;;;5088720;28;20005;-70
2023/12/28 03:20:25;;;;;;;;;;;;;;;;;;5092013;28;19985;-70
2023/12/28 03:22:52;;;;;;;;;;;;;;;;;;5088084;28;20366;-70
2023/12/28 03:25:19;;;;;;;;;;;;;;;;;;5090658;28;19924;-70
2023/12/28 03:27:46;;;;;;;;;;;;;;;;;;5088351;28;19924;-70
2023/12/28 03:30:13;;;;;;;;;;;;;;;;;;5084397;28;19950;-71
2023/12/28 03:32:40;;;;;;;;;;;;;;;;;;5086659;28;19924;-70
2023/12/28 03:35:07;;;;;;;;;;;;;;;;;;5091792;28;19928;-70
2023/12/28 03:37:34;;;;;;;;;;;;;;;;;;5086003;28;19925;-70
2023/12/28 03:40:02;;;;;;;;;;;;;;;;;;5088411;28;19924;-70
2023/12/28 03:42:29;;;;;;;;;;;;;;;;;;5091556;28;19931;-70
2023/12/28 03:44:56;;;;;;;;;;;;;;;;;;5092460;28;19994;-71
2023/12/28 03:47:24;;;;;;;;;;;;;;;;;;5089020;28;20480;-71
2023/12/28 03:49:51;;;;;;;;;;;;;;;;;;5091507;28;19924;-71
2023/12/28 03:52:18;;;;;;;;;;;;;;;;;;5090233;28;19978;-72
2023/12/28 03:54:45;;;;;;;;;;;;;;;;;;5091002;28;19928;-71
2023/12/28 03:57:12;;;;;;;;;;;;;;;;;;5090041;28;19939;-71
2023/12/28 03:59:39;;;;;;;;;;;;;;;;;;5090683;28;19924;-70
2023/12/28 04:02:06;;;;;;;;;;;;;;;;;;5088144;28;20028;-70
2023/12/28 04:04:33;;;;;;;;;;;;;;;;;;5089948;28;19977;-70
2023/12/28 04:07:00;;;;;;;;;;;;;;;;;;5091706;28;19924;-70
2023/12/28 04:09:27;;;;;;;;;;;;;;;;;;5090549;28;19947;-70
2023/12/28 04:11:54;;;;;;;;;;;;;;;;;;5088305;28;19988;-70
2023/12/28 04:14:21;;;;;;;;;;;;;;;;;;5086321;28;20363;-70
2023/12/28 04:16:48;;;;;;;;;;;;;;;;;;5079898;28;20393;-71
2023/12/28 04:19:15;;;;;;;;;;;;;;;;;;5090409;28;19932;-72
2023/12/28 04:21:42;;;;;;;;;;;;;;;;;;5090563;28;20442;-71
2023/12/28 04:24:09;;;;;;;;;;;;;;;;;;5090872;28;19928;-71
2023/12/28 04:26:36;;;;;;;;;;;;;;;;;;5081659;28;19924;-71
2023/12/28 04:29:03;;;;;;;;;;;;;;;;;;5090597;28;20003;-71
2023/12/28 04:31:31;;;;;;;;;;;;;;;;;;5089147;28;19928;-71
2023/12/28 04:33:58;;;;;;;;;;;;;;;;;;5091353;28;19935;-71
2023/12/28 04:36:25;;;;;;;;;;;;;;;;;;5089026;28;19932;-70
2023/12/28 04:38:52;;;;;;;;;;;;;;;;;;5091054;28;19931;-70
2023/12/28 04:41:19;;;;;;;;;;;;;;;;;;5088770;28;20345;-72
2023/12/28 04:43:46;;;;;;;;;;;;;;;;;;5087961;28;19924;-71
2023/12/28 04:46:13;;;;;;;;;;;;;;;;;;5078912;28;20390;-72
2023/12/28 04:48:40;;;;;;;;;;;;;;;;;;5090155;28;19969;-72
2023/12/28 04:51:07;;;;;;;;;;;;;;;;;;5092053;28;20320;-72
2023/12/28 04:53:34;;;;;;;;;;;;;;;;;;5089755;28;19947;-72
2023/12/28 04:56:01;;;;;;;;;;;;;;;;;;5092064;28;19931;-72
2023/12/28 04:58:28;;;;;;;;;;;;;;;;;;5093192;28;19924;-72
2023/12/28 05:00:55;;;;;;;;;;;;;;;;;;5088327;28;19925;-72
2023/12/28 05:03:23;;;;;;;;;;;;;;;;;;5088523;28;19928;-72
2023/12/28 05:05:50;;;;;;;;;;;;;;;;;;5089567;28;20345;-71
2023/12/28 05:08:17;;;;;;;;;;;;;;;;;;5081573;28;19924;-71
2023/12/28 05:10:44;;;;;;;;;;;;;;;;;;5087842;28;19932;-72
2023/12/28 05:13:11;;;;;;;;;;;;;;;;;;5090481;28;19924;-72
2023/12/28 05:15:38;;;;;;;;;;;;;;;;;;5094969;28;20030;-72
2023/12/28 05:18:07;;;;;;;;;;;;;;;;;;5095057;28;20390;-73
2023/12/28 05:20:34;;;;;;;;;;;;;;;;;;5094069;28;19924;-72
2023/12/28 05:23:01;;;;;;;;;;;;;;;;;;5092964;28;19950;-72
2023/12/28 05:25:28;;;;;;;;;;;;;;;;;;5094010;28;19924;-72
2023/12/28 05:27:55;;;;;;;;;;;;;;;;;;5093672;28;20440;-71
2023/12/28 05:30:22;;;;;;;;;;;;;;;;;;5093549;28;20299;-72
2023/12/28 05:32:49;;;;;;;;;;;;;;;;;;5092012;28;19924;-72
2023/12/28 05:35:16;;;;;;;;;;;;;;;;;;5092814;28;19932;-72
2023/12/28 05:37:43;;;;;;;;;;;;;;;;;;5094965;28;19977;-72
2023/12/28 05:40:10;;;;;;;;;;;;;;;;;;5087177;28;19970;-72
2023/12/28 05:42:37;;;;;;;;;;;;;;;;;;5092120;28;20029;-72
2023/12/28 05:45:04;;;;;;;;;;;;;;;;;;5093885;28;19924;-72
2023/12/28 05:47:31;;;;;;;;;;;;;;;;;;5093518;28;19928;-71
2023/12/28 05:49:59;;;;;;;;;;;;;;;;;;5090229;28;20291;-71
2023/12/28 05:52:26;;;;;;;;;;;;;;;;;;5089285;28;19924;-72
2023/12/28 05:54:53;;;;;;;;;;;;;;;;;;5094002;28;20272;-71
2023/12/28 05:57:20;;;;;;;;;;;;;;;;;;5080117;28;20383;-71
2023/12/28 05:59:47;;;;;;;;;;;;;;;;;;5088525;28;19924;-72
2023/12/28 06:02:14;;;;;;;;;;;;;;;;;;5088953;28;20615;-73
2023/12/28 06:04:41;;;;;;;;;;;;;;;;;;5086988;28;20389;-71
2023/12/28 06:07:08;;;;;;;;;;;;;;;;;;5093006;28;19932;-71
2023/12/28 06:09:36;;;;;;;;;;;;;;;;;;5091503;28;20348;-71
2023/12/28 06:12:03;;;;;;;;;;;;;;;;;;5092750;28;20282;-72
2023/12/28 06:14:30;;;;;;;;;;;;;;;;;;5090518;28;19924;-72
2023/12/28 06:16:58;;;;;;;;;;;;;;;;;;5092601;28;19928;-71
2023/12/28 06:19:25;;;;;;;;;;;;;;;;;;5093603;28;19977;-73
2023/12/28 06:21:53;;;;;;;;;;;;;;;;;;5092492;28;19923;-71
2023/12/28 06:24:20;;;;;;;;;;;;;;;;;;5093056;28;19931;-72
2023/12/28 06:26:48;;;;;;;;;;;;;;;;;;5092800;28;19977;-72
2023/12/28 06:29:15;;;;;;;;;;;;;;;;;;5093557;28;20370;-72
2023/12/28 06:31:42;;;;;;;;;;;;;;;;;;5089388;28;20440;-72
2023/12/28 06:34:09;;;;;;;;;;;;;;;;;;5087627;28;19932;-72
2023/12/28 06:36:36;;;;;;;;;;;;;;;;;;5073811;28;19970;-72
2023/12/28 06:39:03;;;;;;;;;;;;;;;;;;5090242;28;19928;-72
2023/12/28 06:41:30;;;;;;;;;;;;;;;;;;5093734;28;19927;-72
2023/12/28 06:43:57;;;;;;;;;;;;;;;;;;5093247;28;19928;-70
2023/12/28 06:46:24;;;;;;;;;;;;;;;;;;5091472;28;19935;-71
2023/12/28 06:48:51;;;;;;;;;;;;;;;;;;5091718;28;19935;-72
2023/12/28 06:51:19;;;;;;;;;;;;;;;;;;5090202;28;19977;-72
2023/12/28 06:53:46;;;;;;;;;;;;;;;;;;5093489;28;19931;-71
2023/12/28 06:56:13;;;;;;;;;;;;;;;;;;5092760;28;20010;-72
2023/12/28 06:58:40;;;;;;;;;;;;;;;;;;5091986;28;19932;-72
2023/12/28 07:01:07;;;;;;;;;;;;;;;;;;5092296;28;20336;-72
2023/12/28 07:03:34;;;;;;;;;;;;;;;;;;5089270;28;19928;-72
2023/12/28 07:06:01;;;;;;;;;;;;;;;;;;5090413;28;19931;-71
2023/12/28 07:08:28;;;;;;;;;;;;;;;;;;5091209;28;19970;-72
2023/12/28 07:10:55;;;;;;;;;;;;;;;;;;5086967;28;19970;-72
2023/12/28 07:13:23;;;;;;;;;;;;;;;;;;5092182;28;19924;-71
2023/12/28 07:15:50;;;;;;;;;;;;;;;;;;5090967;28;20344;-71
2023/12/28 07:18:17;;;;;;;;;;;;;;;;;;5092140;28;19975;-72
2023/12/28 07:20:44;;;;;;;;;;;;;;;;;;5091203;28;19924;-73
2023/12/28 07:23:11;;;;;;;;;;;;;;;;;;5082555;28;19924;-71
2023/12/28 07:25:38;;;;;;;;;;;;;;;;;;5092794;28;20010;-71
2023/12/28 07:28:05;;;;;;;;;;;;;;;;;;5092401;28;19928;-71
2023/12/28 07:30:32;;;;;;;;;;;;;;;;;;5083565;28;19930;-72
2023/12/28 07:32:59;;;;;;;;;;;;;;;;;;5090288;28;19924;-71
2023/12/28 07:35:27;;;;;;;;;;;;;;;;;;5087887;28;19930;-71
2023/12/28 07:37:54;;;;;;;;;;;;;;;;;;5085515;28;19975;-71
2023/12/28 07:40:21;;;;;;;;;;;;;;;;;;5084615;28;19931;-70
2023/12/28 07:42:48;;;;;;;;;;;;;;;;;;5090043;28;19924;-69
2023/12/28 07:45:17;;;;;;;;;;;;;;;;;;5091364;28;19977;-69
2023/12/28 07:47:44;;;;;;;;;;;;;;;;;;5085259;28;19924;-72
2023/12/28 07:50:11;;;;;;;;;;;;;;;;;;5085995;28;20001;-69
2023/12/28 07:52:38;;;;;;;;;;;;;;;;;;5084865;28;20383;-71
2023/12/28 07:55:05;;;;;;;;;;;;;;;;;;5086602;28;20005;-70
2023/12/28 07:57:34;;;;;;;;;;;;;;;;;;5088407;28;19968;-71
2023/12/28 08:00:01;;;;;;;;;;;;;;;;;;5086751;28;20390;-70
2023/12/28 08:02:28;;;;;;;;;;;;;;;;;;5089476;28;20340;-70
2023/12/28 08:04:55;;;;;;;;;;;;;;;;;;5088353;28;19951;-71
2023/12/28 08:07:22;;;;;;;;;;;;;;;;;;5090835;28;20336;-70
2023/12/28 08:09:49;;;;;;;;;;;;;;;;;;5089040;28;20313;-70
2023/12/28 08:12:16;;;;;;;;;;;;;;;;;;5084282;28;19925;-69
2023/12/28 08:14:43;;;;;;;;;;;;;;;;;;5088818;28;19931;-69
2023/12/28 08:17:11;;;;;;;;;;;;;;;;;;5084034;28;19924;-70
2023/12/28 08:19:38;;;;;;;;;;;;;;;;;;5088937;28;19932;-69
2023/12/28 08:22:05;;;;;;;;;;;;;;;;;;5087388;28;19935;-70
2023/12/28 08:24:33;;;;;;;;;;;;;;;;;;5087914;28;20019;-68
2023/12/28 08:27:00;;;;;;;;;;;;;;;;;;5089646;28;19924;-68
2023/12/28 08:29:27;;;;;;;;;;;;;;;;;;5084821;28;19947;-68
2023/12/28 08:31:55;;;;;;;;;;;;;;;;;;5083164;28;19924;-70
2023/12/28 08:34:22;;;;;;;;;;;;;;;;;;5089294;28;20006;-70
2023/12/28 08:36:49;;;;;;;;;;;;;;;;;;5089887;28;19950;-69
2023/12/28 08:39:16;;;;;;;;;;;;;;;;;;5088963;28;20645;-69
2023/12/28 08:41:43;;;;;;;;;;;;;;;;;;5090174;28;19924;-69
2023/12/28 08:44:10;;;;;;;;;;;;;;;;;;5086417;28;19932;-69
2023/12/28 08:46:37;;;;;;;;;;;;;;;;;;5089729;28;19986;-69
2023/12/28 08:49:04;;;;;;;;;;;;;;;;;;5083022;28;19943;-70
2023/12/28 08:51:31;;;;;;;;;;;;;;;;;;5083148;28;19925;-69
2023/12/28 08:53:58;;;;;;;;;;;;;;;;;;5086474;28;20337;-69
2023/12/28 08:56:25;;;;;;;;;;;;;;;;;;5088490;28;19950;-68
2023/12/28 08:58:54;;;;;;;;;;;;;;;;;;5070189;28;19936;-69
2023/12/28 09:01:21;;;;;;;;;;;;;;;;;;5083685;28;19924;-69
2023/12/28 09:03:48;;;;;;;;;;;;;;;;;;5087140;28;20007;-69
2023/12/28 09:06:15;;;;;;;;;;;;;;;;;;5080534;28;20027;-68
2023/12/28 09:08:42;;;;;;;;;;;;;;;;;;5088485;28;19924;-69
2023/12/28 09:11:10;;;;;;;;;;;;;;;;;;5083446;28;19924;-69
2023/12/28 09:13:37;;;;;;;;;;;;;;;;;;5086821;28;19928;-69
2023/12/28 09:16:04;;;;;;;;;;;;;;;;;;5084222;28;19924;-69
2023/12/28 09:18:31;;;;;;;;;;;;;;;;;;5083782;28;19931;-69
2023/12/28 09:20:58;;;;;;;;;;;;;;;;;;5077554;28;19947;-69
2023/12/28 09:23:25;;;;;;;;;;;;;;;;;;5079189;28;19924;-69
2023/12/28 09:25:52;;;;;;;;;;;;;;;;;;5084390;28;19924;-69
2023/12/28 09:28:19;;;;;;;;;;;;;;;;;;5087067;28;20463;-69
2023/12/28 09:30:46;;;;;;;;;;;;;;;;;;5086321;28;19924;-69
2023/12/28 09:33:15;;;;;;;;;;;;;;;;;;5083221;28;19957;-69
2023/12/28 09:35:42;;;;;;;;;;;;;;;;;;5080022;28;20397;-69
2023/12/28 09:38:09;;;;;;;;;;;;;;;;;;5083411;28;19924;-69
2023/12/28 09:40:37;;;;;;;;;;;;;;;;;;5080846;28;19947;-69
2023/12/28 09:43:05;;;;;;;;;;;;;;;;;;5079939;28;20011;-69
2023/12/28 09:45:32;;;;;;;;;;;;;;;;;;5089267;28;20007;-73
2023/12/28 09:47:59;;;;;;;;;;;;;;;;;;5084367;28;20014;-70
2023/12/28 09:50:26;;;;;;;;;;;;;;;;;;5087606;28;20034;-68
2023/12/28 09:52:54;;;;;;;;;;;;;;;;;;5082640;28;19924;-70
2023/12/28 09:55:21;;;;;;;;;;;;;;;;;;5082440;28;20013;-69
2023/12/28 09:57:48;;;;;;;;;;;;;;;;;;5081928;28;19932;-67
2023/12/28 10:00:15;;;;;;;;;;;;;;;;;;5084116;28;20646;-68
2023/12/28 10:02:42;;;;;;;;;;;;;;;;;;5081458;28;20306;-69
2023/12/28 10:05:09;;;;;;;;;;;;;;;;;;5077619;28;19959;-70
2023/12/28 10:07:36;;;;;;;;;;;;;;;;;;5080338;28;20653;-70
2023/12/28 10:10:04;;;;;;;;;;;;;;;;;;5080011;28;20409;-70
2023/12/28 10:12:31;;;;;;;;;;;;;;;;;;5083713;28;19936;-70
2023/12/28 10:14:58;;;;;;;;;;;;;;;;;;5080873;28;19932;-70
2023/12/28 10:17:25;;;;;;;;;;;;;;;;;;5082464;28;20375;-70
2023/12/28 10:19:52;;;;;;;;;;;;;;;;;;5089511;28;20325;-70
2023/12/28 10:22:19;;;;;;;;;;;;;;;;;;5084202;28;19925;-71
2023/12/28 10:24:46;;;;;;;;;;;;;;;;;;5087450;28;20027;-70
2023/12/28 10:27:14;;;;;;;;;;;;;;;;;;5089732;28;19954;-70
2023/12/28 10:29:41;;;;;;;;;;;;;;;;;;5088984;28;19970;-68
2023/12/28 10:32:09;;;;;;;;;;;;;;;;;;5082059;28;19924;-68
2023/12/28 10:34:36;;;;;;;;;;;;;;;;;;5085837;28;19936;-68
2023/12/28 10:37:03;;;;;;;;;;;;;;;;;;5086531;28;19924;-69
2023/12/28 10:39:32;;;;;;;;;;;;;;;;;;5085996;28;20063;-69
2023/12/28 10:41:59;;;;;;;;;;;;;;;;;;5089305;28;19925;-69
2023/12/28 10:44:27;;;;;;;;;;;;;;;;;;5087970;28;19978;-70
2023/12/28 10:46:54;;;;;;;;;;;;;;;;;;5088140;28;19970;-69
2023/12/28 10:49:21;;;;;;;;;;;;;;;;;;5084175;28;19924;-70
2023/12/28 10:51:48;;;;;;;;;;;;;;;;;;5079327;28;20436;-72
2023/12/28 10:54:15;;;;;;;;;;;;;;;;;;5083091;28;19977;-70
2023/12/28 10:56:42;;;;;;;;;;;;;;;;;;5077305;28;20018;-70
2023/12/28 10:59:09;;;;;;;;;;;;;;;;;;5086629;28;19924;-71
2023/12/28 11:01:37;;;;;;;;;;;;;;;;;;5078553;28;19964;-70
2023/12/28 11:04:05;;;;;;;;;;;;;;;;;;5081958;28;20545;-71
2023/12/28 11:06:32;;;;;;;;;;;;;;;;;;5090248;28;19969;-70
2023/12/28 11:08:59;;;;;;;;;;;;;;;;;;5089274;28;20036;-70
2023/12/28 11:11:26;;;;;;;;;;;;;;;;;;5086298;28;19928;-70
2023/12/28 11:13:53;;;;;;;;;;;;;;;;;;5076345;28;19932;-71
2023/12/28 11:16:22;;;;;;;;;;;;;;;;;;5078381;28;19965;-71
2023/12/28 11:18:49;;;;;;;;;;;;;;;;;;5076458;28;20385;-71
2023/12/28 11:21:17;;;;;;;;;;;;;;;;;;5082847;28;19993;-71
2023/12/28 11:23:44;;;;;;;;;;;;;;;;;;5087596;28;19931;-71
2023/12/28 11:26:11;;;;;;;;;;;;;;;;;;5079631;28;20598;-72
2023/12/28 11:28:39;;;;;;;;;;;;;;;;;;5086682;28;19924;-70
2023/12/28 11:31:06;;;;;;;;;;;;;;;;;;5081084;28;19956;-71
2023/12/28 11:33:33;;;;;;;;;;;;;;;;;;5084670;28;19943;-70
2023/12/28 11:36:00;;;;;;;;;;;;;;;;;;5087076;28;19932;-70
2023/12/28 11:38:27;;;;;;;;;;;;;;;;;;5082253;28;20384;-71
2023/12/28 11:40:57;;;;;;;;;;;;;;;;;;5084923;28;19971;-71
2023/12/28 11:43:25;;;;;;;;;;;;;;;;;;5086561;28;19925;-71
2023/12/28 11:45:52;;;;;;;;;;;;;;;;;;5088599;28;20327;-71
2023/12/28 11:48:19;;;;;;;;;;;;;;;;;;5085634;28;20007;-71
2023/12/28 11:50:46;;;;;;;;;;;;;;;;;;5088223;28;20240;-71
2023/12/28 11:53:13;;;;;;;;;;;;;;;;;;5083633;28;20052;-71
2023/12/28 11:55:40;;;;;;;;;;;;;;;;;;5087573;28;20356;-70
2023/12/28 11:58:07;;;;;;;;;;;;;;;;;;5087029;28;20000;-70
2023/12/28 12:00:34;;;;;;;;;;;;;;;;;;5085907;28;19977;-70
2023/12/28 12:03:01;;;;;;;;;;;;;;;;;;5083439;28;19925;-70
2023/12/28 12:05:29;;;;;;;;;;;;;;;;;;5085898;28;20480;-70
2023/12/28 12:07:56;;;;;;;;;;;;;;;;;;5080188;28;19971;-67
2023/12/28 12:10:23;;;;;;;;;;;;;;;;;;5079915;28;19969;-68
2023/12/28 12:12:51;;;;;;;;;;;;;;;;;;5076855;28;19925;-70
2023/12/28 12:15:18;;;;;;;;;;;;;;;;;;5089144;28;19924;-70
2023/12/28 12:17:45;;;;;;;;;;;;;;;;;;5086558;28;19967;-70
2023/12/28 12:20:12;;;;;;;;;;;;;;;;;;5085633;28;20398;-70
2023/12/28 12:22:39;;;;;;;;;;;;;;;;;;5085749;28;19993;-69
2023/12/28 12:25:07;;;;;;;;;;;;;;;;;;5086670;28;19935;-70
2023/12/28 12:27:34;;;;;;;;;;;;;;;;;;5084905;28;20022;-69
2023/12/28 12:30:02;;;;;;;;;;;;;;;;;;5086106;28;19932;-69
2023/12/28 12:32:29;;;;;;;;;;;;;;;;;;5079434;28;19924;-68
2023/12/28 12:34:57;;;;;;;;;;;;;;;;;;5082097;28;19995;-71
2023/12/28 12:37:24;;;;;;;;;;;;;;;;;;5080537;28;19931;-69
2023/12/28 12:39:51;;;;;;;;;;;;;;;;;;5088638;28;20295;-67
2023/12/28 12:42:19;;;;;;;;;;;;;;;;;;5083948;28;19989;-69
2023/12/28 12:44:46;;;;;;;;;;;;;;;;;;5085304;28;19924;-67
2023/12/28 12:47:13;;;;;;;;;;;;;;;;;;5078513;28;19981;-67
2023/12/28 12:49:43;;;;;;;;;;;;;;;;;;5085990;28;20124;-66
2023/12/28 12:52:10;;;;;;;;;;;;;;;;;;5079621;28;19932;-67
2023/12/28 12:54:37;;;;;;;;;;;;;;;;;;5087947;28;20288;-67
2023/12/28 12:57:04;;;;;;;;;;;;;;;;;;5089431;28;19963;-67
2023/12/28 12:59:31;;;;;;;;;;;;;;;;;;5081444;28;19927;-67
2023/12/28 13:01:58;;;;;;;;;;;;;;;;;;5075522;28;20036;-67
2023/12/28 13:04:25;;;;;;;;;;;;;;;;;;5086791;28;20073;-67
2023/12/28 13:06:52;;;;;;;;;;;;;;;;;;5077850;28;20402;-68
2023/12/28 13:09:20;;;;;;;;;;;;;;;;;;5081684;28;19932;-69
2023/12/28 13:11:49;;;;;;;;;;;;;;;;;;5080278;28;19928;-68
2023/12/28 13:14:17;;;;;;;;;;;;;;;;;;5086535;28;19940;-69
2023/12/28 13:16:44;;;;;;;;;;;;;;;;;;5079656;28;19925;-68
2023/12/28 13:19:11;;;;;;;;;;;;;;;;;;5085550;28;19993;-68
2023/12/28 13:21:38;;;;;;;;;;;;;;;;;;5077532;28;20402;-68
2023/12/28 13:24:05;;;;;;;;;;;;;;;;;;5090244;28;19924;-68
2023/12/28 13:26:32;;;;;;;;;;;;;;;;;;5093903;28;19936;-69
2023/12/28 13:28:59;;;;;;;;;;;;;;;;;;5088992;28;19950;-69
2023/12/28 13:31:26;;;;;;;;;;;;;;;;;;5088125;28;19924;-69
2023/12/28 13:33:54;;;;;;;;;;;;;;;;;;5091775;28;19924;-69
2023/12/28 13:36:21;;;;;;;;;;;;;;;;;;5089238;28;19924;-70
2023/12/28 13:38:48;;;;;;;;;;;;;;;;;;5090303;28;19932;-69
2023/12/28 13:41:15;;;;;;;;;;;;;;;;;;5088954;28;19967;-69
2023/12/28 13:43:43;;;;;;;;;;;;;;;;;;5088504;28;19927;-70
2023/12/28 13:46:10;;;;;;;;;;;;;;;;;;5087938;28;19955;-69
2023/12/28 13:48:38;;;;;;;;;;;;;;;;;;5087628;28;19932;-69
2023/12/28 13:51:05;;;;;;;;;;;;;;;;;;5087892;28;19932;-69
2023/12/28 13:53:35;;;;;;;;;;;;;;;;;;5086123;28;19928;-69
2023/12/28 13:56:02;;;;;;;;;;;;;;;;;;5086555;28;19932;-70
2023/12/28 13:58:29;;;;;;;;;;;;;;;;;;5086828;28;19924;-70
2023/12/28 14:00:56;;;;;;;;;;;;;;;;;;5082828;28;19978;-70
2023/12/28 14:03:23;;;;;;;;;;;;;;;;;;5083747;28;19960;-70
2023/12/28 14:05:51;;;;;;;;;;;;;;;;;;5079809;28;20447;-69
2023/12/28 14:08:18;;;;;;;;;;;;;;;;;;5092404;28;19969;-71
2023/12/28 14:10:45;;;;;;;;;;;;;;;;;;5080576;28;19978;-70
2023/12/28 14:13:12;;;;;;;;;;;;;;;;;;5088817;28;19985;-69
2023/12/28 14:15:39;;;;;;;;;;;;;;;;;;5083125;28;20306;-70
2023/12/28 14:18:06;;;;;;;;;;;;;;;;;;5090575;28;19924;-69
2023/12/28 14:20:33;;;;;;;;;;;;;;;;;;5081827;28;19924;-70
2023/12/28 14:23:00;;;;;;;;;;;;;;;;;;5086190;28;21843;-69
2023/12/28 14:25:28;;;;;;;;;;;;;;;;;;5085636;28;19987;-70
2023/12/28 14:27:55;;;;;;;;;;;;;;;;;;5085997;28;19967;-69
2023/12/28 14:30:22;;;;;;;;;;;;;;;;;;5085795;28;20005;-70
2023/12/28 14:32:49;;;;;;;;;;;;;;;;;;5090435;28;19928;-70
2023/12/28 14:35:16;;;;;;;;;;;;;;;;;;5091561;28;19963;-70
2023/12/28 14:37:43;;;;;;;;;;;;;;;;;;5085018;28;20003;-70
2023/12/28 14:40:11;;;;;;;;;;;;;;;;;;5082256;28;19940;-69
2023/12/28 14:42:38;;;;;;;;;;;;;;;;;;5085540;28;19928;-69
2023/12/28 14:45:05;;;;;;;;;;;;;;;;;;5083085;28;19932;-69
2023/12/28 14:47:32;;;;;;;;;;;;;;;;;;5086483;28;19934;-68
2023/12/28 14:50:00;;;;;;;;;;;;;;;;;;5087327;28;19932;-68
2023/12/28 14:52:27;;;;;;;;;;;;;;;;;;5087635;28;19924;-68
2023/12/28 14:54:54;;;;;;;;;;;;;;;;;;5090731;28;19977;-69
2023/12/28 14:57:21;;;;;;;;;;;;;;;;;;5088340;28;19999;-69
2023/12/28 14:59:48;;;;;;;;;;;;;;;;;;5088386;28;20441;-69
2023/12/28 15:02:15;;;;;;;;;;;;;;;;;;5088252;28;19924;-69
2023/12/28 15:04:42;;;;;;;;;;;;;;;;;;5087897;28;20093;-69
2023/12/28 15:07:09;;;;;;;;;;;;;;;;;;5087224;28;19924;-70
2023/12/28 15:09:36;;;;;;;;;;;;;;;;;;5087679;28;19970;-69
2023/12/28 15:12:03;;;;;;;;;;;;;;;;;;5086124;28;20415;-70
2023/12/28 15:14:30;;;;;;;;;;;;;;;;;;5083809;28;19925;-69
2023/12/28 15:16:57;;;;;;;;;;;;;;;;;;5084966;28;19980;-69
2023/12/28 15:19:26;;;;;;;;;;;;;;;;;;5084197;28;19928;-69
2023/12/28 15:21:53;;;;;;;;;;;;;;;;;;5080399;28;19924;-70
2023/12/28 15:24:20;;;;;;;;;;;;;;;;;;5090529;28;19924;-68
2023/12/28 15:26:47;;;;;;;;;;;;;;;;;;5085332;28;20447;-70
2023/12/28 15:29:15;;;;;;;;;;;;;;;;;;5085448;28;19925;-69
2023/12/28 15:31:42;;;;;;;;;;;;;;;;;;5089853;28;19924;-68
2023/12/28 15:34:09;;;;;;;;;;;;;;;;;;5087720;28;19932;-69
2023/12/28 15:36:36;;;;;;;;;;;;;;;;;;5080851;28;19977;-69
2023/12/28 15:39:05;;;;;;;;;;;;;;;;;;5091179;28;20110;-69
2023/12/28 15:41:32;;;;;;;;;;;;;;;;;;5086425;28;20016;-68
2023/12/28 15:43:59;;;;;;;;;;;;;;;;;;5090199;28;19928;-69
2023/12/28 15:46:27;;;;;;;;;;;;;;;;;;5085837;28;20369;-69
2023/12/28 15:48:54;;;;;;;;;;;;;;;;;;5084514;28;19932;-70
2023/12/28 15:51:21;;;;;;;;;;;;;;;;;;5080454;28;19928;-68
2023/12/28 15:53:48;;;;;;;;;;;;;;;;;;5077374;28;20020;-69
2023/12/28 15:56:16;;;;;;;;;;;;;;;;;;5081147;28;20306;-69
2023/12/28 15:58:43;;;;;;;;;;;;;;;;;;5084358;28;20060;-69
2023/12/28 16:01:10;;;;;;;;;;;;;;;;;;5088165;28;19931;-69
2023/12/28 16:03:37;;;;;;;;;;;;;;;;;;5086476;28;20288;-69
2023/12/28 16:06:04;;;;;;;;;;;;;;;;;;5079954;28;19963;-69
2023/12/28 16:08:32;;;;;;;;;;;;;;;;;;5081961;28;19928;-69
2023/12/28 16:11:00;;;;;;;;;;;;;;;;;;5081509;28;20382;-70
2023/12/28 16:13:27;;;;;;;;;;;;;;;;;;5081108;28;19924;-71
2023/12/28 16:15:54;;;;;;;;;;;;;;;;;;5088992;28;19924;-69
2023/12/28 16:18:21;;;;;;;;;;;;;;;;;;5088379;28;19947;-69
2023/12/28 16:20:48;;;;;;;;;;;;;;;;;;5082953;28;20369;-69
2023/12/28 16:23:15;;;;;;;;;;;;;;;;;;5085616;28;19963;-70
2023/12/28 16:25:42;;;;;;;;;;;;;;;;;;5085998;28;19924;-70
2023/12/28 16:28:09;;;;;;;;;;;;;;;;;;5087088;28;20411;-70
2023/12/28 16:30:36;;;;;;;;;;;;;;;;;;5084645;28;20039;-69
2023/12/28 16:33:03;;;;;;;;;;;;;;;;;;5081707;28;19960;-69
2023/12/28 16:35:30;;;;;;;;;;;;;;;;;;5081299;28;20248;-69
2023/12/28 16:37:57;;;;;;;;;;;;;;;;;;5082691;28;19931;-69
2023/12/28 16:40:24;;;;;;;;;;;;;;;;;;5082197;28;19944;-69
2023/12/28 16:42:51;;;;;;;;;;;;;;;;;;5084240;28;19924;-69
2023/12/28 16:45:18;;;;;;;;;;;;;;;;;;5080808;28;20441;-70